createdAt,value
2019-04-16T00:00:33.295Z,17.10
2019-04-16T00:03:02.783Z,17.00
2019-04-16T00:05:32.923Z,17.10
2019-04-16T00:08:03.201Z,17.00
2019-04-16T00:10:39.362Z,17.00
2019-04-16T00:13:18.193Z,17.00
2019-04-16T00:15:46.783Z,16.90
2019-04-16T00:18:18.467Z,17.00
2019-04-16T00:20:55.900Z,17.00
2019-04-16T00:23:35.148Z,17.00
2019-04-16T00:26:03.870Z,17.00
2019-04-16T00:28:32.378Z,17.10
2019-04-16T00:31:01.034Z,17.00
2019-04-16T00:33:29.723Z,17.00
2019-04-16T00:35:58.227Z,17.00
2019-04-16T00:38:39.746Z,17.00
2019-04-16T00:41:00.757Z,17.10
2019-04-16T00:43:27.064Z,17.10
2019-04-16T00:45:55.654Z,17.10
2019-04-16T00:48:24.170Z,17.30
2019-04-16T00:50:52.687Z,17.40
2019-04-16T00:53:21.218Z,17.40
2019-04-16T00:55:49.728Z,17.30
2019-04-16T00:58:19.792Z,17.20
2019-04-16T01:00:48.427Z,17.30
2019-04-16T01:03:16.988Z,17.40
2019-04-16T01:05:46.511Z,17.30
2019-04-16T01:08:15.182Z,17.20
2019-04-16T01:10:43.616Z,17.20
2019-04-16T01:13:12.158Z,17.10
2019-04-16T01:15:40.679Z,17.10
2019-04-16T01:18:09.313Z,17.20
2019-04-16T01:20:42.802Z,17.30
2019-04-16T01:23:08.011Z,17.40
2019-04-16T01:25:36.538Z,17.70
2019-04-16T01:28:06.655Z,17.70
2019-04-16T01:30:37.212Z,17.80
2019-04-16T01:33:07.377Z,17.80
2019-04-16T01:35:51.733Z,17.80
2019-04-16T01:38:37.265Z,17.90
2019-04-16T01:41:07.415Z,18.00
2019-04-16T01:43:35.841Z,17.90
2019-04-16T01:46:04.390Z,17.80
2019-04-16T01:48:32.882Z,17.90
2019-04-16T01:51:01.314Z,17.80
2019-04-16T01:53:29.893Z,17.80
2019-04-16T01:55:58.613Z,17.80
2019-04-16T01:58:27.355Z,17.70
2019-04-16T02:00:55.941Z,17.70
2019-04-16T02:03:24.550Z,17.80
2019-04-16T02:05:54.858Z,17.70
2019-04-16T02:08:24.327Z,17.70
2019-04-16T02:10:52.963Z,17.70
2019-04-16T02:13:21.479Z,17.80
2019-04-16T02:15:50.544Z,17.80
2019-04-16T02:18:20.147Z,17.80
2019-04-16T02:20:48.729Z,17.70
2019-04-16T02:23:17.460Z,17.70
2019-04-16T02:25:48.562Z,17.70
2019-04-16T02:28:16.097Z,17.80
2019-04-16T02:30:45.569Z,17.80
2019-04-16T02:33:14.160Z,17.90
2019-04-16T02:35:42.636Z,17.90
2019-04-16T02:38:13.481Z,17.80
2019-04-16T02:40:41.543Z,17.70
2019-04-16T02:43:10.355Z,17.80
2019-04-16T02:45:38.910Z,17.80
2019-04-16T02:48:07.445Z,17.80
2019-04-16T02:50:37.689Z,17.70
2019-04-16T02:53:25.238Z,17.70
2019-04-16T02:55:55.476Z,17.50
2019-04-16T02:58:34.411Z,17.40
2019-04-16T03:01:20.844Z,17.40
2019-04-16T03:03:55.414Z,17.30
2019-04-16T03:06:22.821Z,17.40
2019-04-16T03:08:51.479Z,17.30
2019-04-16T03:11:21.686Z,17.30
2019-04-16T03:13:52.875Z,17.30
2019-04-16T03:16:38.752Z,17.30
2019-04-16T03:19:09.057Z,17.40
2019-04-16T03:21:37.488Z,17.30
2019-04-16T03:24:09.090Z,17.40
2019-04-16T03:26:36.236Z,17.40
2019-04-16T03:29:04.877Z,17.30
2019-04-16T03:31:33.403Z,17.30
2019-04-16T03:34:01.882Z,17.40
2019-04-16T03:36:30.395Z,17.30
2019-04-16T03:38:58.915Z,17.30
2019-04-16T03:41:27.446Z,17.30
2019-04-16T03:43:55.959Z,17.40
2019-04-16T03:46:24.592Z,17.20
2019-04-16T03:48:56.169Z,17.20
2019-04-16T03:51:23.288Z,17.30
2019-04-16T03:53:51.805Z,17.20
2019-04-16T03:56:20.402Z,17.10
2019-04-16T03:58:48.855Z,17.20
2019-04-16T04:01:17.521Z,17.20
2019-04-16T04:03:46.137Z,17.20
2019-04-16T04:06:14.614Z,17.30
2019-04-16T04:08:47.902Z,17.20
2019-04-16T04:11:13.499Z,17.20
2019-04-16T04:13:42.905Z,17.20
2019-04-16T04:16:12.216Z,17.10
2019-04-16T04:18:43.137Z,17.30
2019-04-16T04:21:11.254Z,17.10
2019-04-16T04:23:39.817Z,17.10
2019-04-16T04:26:09.398Z,17.10
2019-04-16T04:28:38.579Z,17.10
2019-04-16T04:31:07.010Z,17.20
2019-04-16T04:33:40.722Z,17.30
2019-04-16T04:36:08.274Z,17.40
2019-04-16T04:38:37.566Z,17.40
2019-04-16T04:41:07.157Z,17.50
2019-04-16T04:43:35.715Z,17.40
2019-04-16T04:46:04.226Z,17.50
2019-04-16T04:48:32.622Z,17.60
2019-04-16T04:51:06.981Z,17.70
2019-04-16T04:53:31.338Z,17.70
2019-04-16T04:55:59.781Z,17.60
2019-04-16T04:58:28.360Z,17.80
2019-04-16T05:00:56.936Z,17.90
2019-04-16T05:03:39.157Z,17.80
2019-04-16T05:06:27.764Z,17.90
2019-04-16T05:08:54.491Z,18.00
2019-04-16T05:11:23.000Z,17.90
2019-04-16T05:13:53.502Z,18.00
2019-04-16T05:16:22.746Z,18.10
2019-04-16T05:18:51.250Z,18.10
2019-04-16T05:21:19.895Z,18.20
2019-04-16T05:23:48.413Z,18.20
2019-04-16T05:26:16.909Z,18.20
2019-04-16T05:28:45.772Z,18.20
2019-04-16T05:31:14.404Z,18.40
2019-04-16T05:33:42.949Z,18.30
2019-04-16T05:36:14.195Z,18.30
2019-04-16T05:38:41.819Z,18.40
2019-04-16T05:41:13.712Z,18.30
2019-04-16T05:43:40.606Z,18.30
2019-04-16T05:46:09.871Z,18.30
2019-04-16T05:48:38.640Z,18.40
2019-04-16T05:51:07.271Z,18.50
2019-04-16T05:53:37.413Z,18.40
2019-04-16T05:56:11.792Z,18.50
2019-04-16T05:58:40.384Z,18.50
2019-04-16T06:01:16.107Z,18.70
2019-04-16T06:03:44.688Z,18.60
2019-04-16T06:06:13.266Z,18.70
2019-04-16T06:08:42.036Z,18.70
2019-04-16T06:11:10.560Z,18.80
2019-04-16T06:13:49.495Z,18.80
2019-04-16T06:16:24.128Z,18.80
2019-04-16T06:18:55.090Z,18.90
2019-04-16T06:21:26.614Z,19.00
2019-04-16T06:23:56.944Z,19.00
2019-04-16T06:26:27.186Z,18.90
2019-04-16T06:28:59.978Z,19.00
2019-04-16T06:31:36.282Z,19.00
2019-04-16T06:34:24.339Z,19.00
2019-04-16T06:36:54.783Z,19.30
2019-04-16T06:39:40.352Z,19.50
2019-04-16T06:42:28.625Z,19.50
2019-04-16T06:44:58.585Z,19.70
2019-04-16T06:47:41.799Z,19.70
2019-04-16T06:50:31.885Z,19.70
2019-04-16T06:53:05.173Z,19.80
2019-04-16T06:55:36.273Z,19.80
2019-04-16T06:58:06.645Z,19.80
2019-04-16T07:00:39.766Z,19.80
2019-04-16T07:03:27.393Z,19.80
2019-04-16T07:06:03.959Z,19.90
2019-04-16T07:08:49.789Z,20.00
2019-04-16T07:11:21.439Z,20.00
2019-04-16T07:13:50.041Z,20.00
2019-04-16T07:16:18.623Z,20.00
2019-04-16T07:18:47.147Z,19.90
2019-04-16T07:21:17.470Z,19.90
2019-04-16T07:23:47.247Z,20.00
2019-04-16T07:26:16.270Z,20.10
2019-04-16T07:29:04.795Z,20.10
2019-04-16T07:31:37.601Z,20.10
2019-04-16T07:34:13.583Z,20.20
2019-04-16T07:36:43.710Z,20.20
2019-04-16T07:39:28.649Z,20.20
2019-04-16T07:42:09.377Z,20.40
2019-04-16T07:44:41.406Z,20.30
2019-04-16T07:47:11.584Z,20.30
2019-04-16T07:49:44.710Z,20.30
2019-04-16T07:52:14.930Z,20.30
2019-04-16T07:54:45.089Z,20.40
2019-04-16T07:57:13.768Z,20.50
2019-04-16T07:59:42.280Z,20.60
2019-04-16T08:02:10.873Z,20.60
2019-04-16T08:04:39.418Z,20.60
2019-04-16T08:07:08.084Z,20.60
2019-04-16T08:09:36.563Z,20.60
2019-04-16T08:12:10.739Z,20.70
2019-04-16T08:14:35.365Z,20.50
2019-04-16T08:17:03.980Z,20.60
2019-04-16T08:19:36.949Z,20.50
2019-04-16T08:22:03.722Z,20.50
2019-04-16T08:24:48.997Z,20.30
2019-04-16T08:27:18.955Z,20.30
2019-04-16T08:29:48.032Z,20.20
2019-04-16T08:32:17.075Z,20.20
2019-04-16T08:34:45.571Z,20.20
2019-04-16T08:37:14.185Z,20.30
2019-04-16T08:39:42.777Z,20.40
2019-04-16T08:42:11.233Z,20.40
2019-04-16T08:44:39.740Z,20.40
2019-04-16T08:47:11.620Z,20.30
2019-04-16T08:49:38.664Z,20.40
2019-04-16T08:52:09.841Z,20.30
2019-04-16T08:54:37.395Z,20.40
2019-04-16T08:57:05.948Z,20.20
2019-04-16T08:59:34.491Z,20.30
2019-04-16T09:02:03.065Z,20.30
2019-04-16T09:04:34.547Z,20.30
2019-04-16T09:07:11.530Z,20.30
2019-04-16T09:09:33.906Z,20.20
2019-04-16T09:12:07.974Z,20.20
2019-04-16T09:14:35.890Z,20.20
2019-04-16T09:17:09.527Z,20.30
2019-04-16T09:19:37.209Z,20.30
2019-04-16T09:22:05.802Z,20.30
2019-04-16T09:24:52.226Z,20.30
2019-04-16T09:27:30.112Z,20.30
2019-04-16T09:30:05.542Z,20.30
2019-04-16T09:32:44.620Z,20.30
2019-04-16T09:35:19.923Z,20.40
2019-04-16T09:37:49.317Z,20.50
2019-04-16T09:40:35.825Z,20.50
2019-04-16T09:43:16.080Z,20.50
2019-04-16T09:45:37.201Z,20.60
2019-04-16T09:48:06.386Z,20.50
2019-04-16T09:50:34.928Z,20.50
2019-04-16T09:53:03.441Z,20.40
2019-04-16T09:55:31.883Z,20.50
2019-04-16T09:58:06.075Z,20.60
2019-04-16T10:00:33.897Z,20.80
2019-04-16T10:03:04.016Z,20.80
2019-04-16T10:05:32.665Z,20.80
2019-04-16T10:08:01.147Z,20.90
2019-04-16T10:10:29.612Z,20.80
2019-04-16T10:12:58.196Z,20.70
2019-04-16T10:15:26.795Z,20.70
2019-04-16T10:17:55.343Z,20.80
2019-04-16T10:20:23.949Z,20.90
2019-04-16T10:22:52.611Z,20.90
2019-04-16T10:25:22.260Z,20.90
2019-04-16T10:27:52.472Z,20.90
2019-04-16T10:30:25.254Z,21.00
2019-04-16T10:32:53.820Z,21.00
2019-04-16T10:35:23.327Z,21.10
2019-04-16T10:37:51.826Z,21.00
2019-04-16T10:40:22.168Z,21.00
2019-04-16T10:43:01.114Z,21.10
2019-04-16T10:45:47.377Z,21.20
2019-04-16T10:48:33.488Z,21.10
2019-04-16T10:51:09.670Z,21.20
2019-04-16T10:53:55.097Z,21.30
2019-04-16T10:56:34.315Z,21.40
2019-04-16T10:59:07.541Z,21.30
2019-04-16T11:01:39.240Z,21.30
2019-04-16T11:04:21.423Z,21.40
2019-04-16T11:06:51.648Z,21.30
2019-04-16T11:09:20.143Z,21.40
2019-04-16T11:11:48.725Z,21.40
2019-04-16T11:14:17.242Z,21.40
2019-04-16T11:16:47.435Z,21.40
2019-04-16T11:19:16.039Z,21.60
2019-04-16T11:21:44.541Z,21.60
2019-04-16T11:24:13.093Z,21.70
2019-04-16T11:26:44.389Z,21.80
2019-04-16T11:29:12.712Z,21.80
2019-04-16T11:31:41.422Z,21.80
2019-04-16T11:34:10.102Z,21.70
2019-04-16T11:36:38.686Z,21.80
2019-04-16T11:39:07.548Z,21.90
2019-04-16T11:41:36.185Z,22.00
2019-04-16T11:44:15.012Z,22.00
2019-04-16T11:46:35.213Z,22.00
2019-04-16T11:49:03.746Z,22.10
2019-04-16T11:51:32.323Z,22.10
2019-04-16T11:54:00.794Z,22.00
2019-04-16T11:56:29.366Z,21.90
2019-04-16T11:58:57.933Z,21.80
2019-04-16T12:01:40.192Z,21.70
2019-04-16T12:04:22.023Z,21.70
2019-04-16T12:06:57.957Z,21.70
2019-04-16T12:09:33.883Z,21.80
2019-04-16T12:12:09.779Z,21.90
2019-04-16T12:14:46.034Z,21.90
2019-04-16T12:17:21.814Z,21.90
2019-04-16T12:19:51.975Z,21.90
2019-04-16T12:22:33.991Z,21.90
2019-04-16T12:25:13.122Z,21.90
2019-04-16T12:27:49.215Z,21.90
2019-04-16T12:30:21.901Z,21.90
2019-04-16T12:32:54.648Z,21.90
2019-04-16T12:35:40.057Z,22.00
2019-04-16T12:38:17.961Z,22.00
2019-04-16T12:40:47.897Z,22.10
2019-04-16T12:43:18.082Z,22.10
2019-04-16T12:46:04.460Z,22.20
2019-04-16T12:48:40.813Z,22.20
2019-04-16T12:51:11.070Z,22.10
2019-04-16T12:53:44.049Z,22.10
2019-04-16T12:56:16.927Z,22.10
2019-04-16T12:59:02.184Z,22.10
2019-04-16T13:01:41.661Z,22.20
2019-04-16T13:04:23.870Z,22.20
2019-04-16T13:06:54.146Z,22.10
2019-04-16T13:09:35.879Z,22.10
2019-04-16T13:12:09.501Z,22.10
2019-04-16T13:15:01.115Z,22.00
2019-04-16T13:17:35.151Z,22.10
2019-04-16T13:20:18.197Z,22.20
2019-04-16T13:22:50.912Z,22.30
2019-04-16T13:25:23.647Z,22.10
2019-04-16T13:27:53.130Z,22.10
2019-04-16T13:30:22.660Z,22.20
2019-04-16T13:32:51.254Z,22.20
2019-04-16T13:35:19.892Z,22.30
2019-04-16T13:37:48.465Z,22.40
2019-04-16T13:40:17.507Z,22.50
2019-04-16T13:42:46.128Z,22.40
2019-04-16T13:45:21.736Z,22.40
2019-04-16T13:47:54.621Z,22.30
2019-04-16T13:50:20.767Z,22.20
2019-04-16T13:52:51.940Z,22.20
2019-04-16T13:55:31.612Z,22.20
2019-04-16T13:58:04.688Z,22.10
2019-04-16T14:00:37.569Z,22.10
2019-04-16T14:03:07.722Z,22.20
2019-04-16T14:05:38.356Z,22.30
2019-04-16T14:08:06.649Z,22.40
2019-04-16T14:10:35.283Z,22.40
2019-04-16T14:13:03.872Z,22.40
2019-04-16T14:15:39.059Z,22.30
2019-04-16T14:18:04.479Z,22.20
2019-04-16T14:20:33.013Z,22.20
2019-04-16T14:23:01.677Z,22.30
2019-04-16T14:25:30.255Z,22.40
2019-04-16T14:28:01.999Z,22.50
2019-04-16T14:30:30.566Z,22.50
2019-04-16T14:33:00.025Z,22.60
2019-04-16T14:35:33.341Z,22.70
2019-04-16T14:38:00.286Z,22.70
2019-04-16T14:40:28.757Z,22.80
2019-04-16T14:42:58.263Z,22.80
2019-04-16T14:45:38.404Z,22.80
2019-04-16T14:48:07.914Z,23.00
2019-04-16T14:50:33.149Z,23.00
2019-04-16T14:53:01.824Z,23.00
2019-04-16T14:55:59.132Z,23.00
2019-04-16T14:58:22.102Z,23.00
2019-04-16T15:01:04.444Z,22.90
2019-04-16T15:03:49.515Z,22.90
2019-04-16T15:06:20.326Z,22.80
2019-04-16T15:08:50.471Z,22.70
2019-04-16T15:11:38.489Z,22.70
2019-04-16T15:14:27.347Z,22.70
2019-04-16T15:17:13.488Z,22.70
2019-04-16T15:19:43.743Z,22.60
2019-04-16T15:22:26.321Z,22.50
2019-04-16T15:25:07.979Z,22.40
2019-04-16T15:27:52.817Z,22.30
2019-04-16T15:30:34.873Z,22.30
2019-04-16T15:33:20.170Z,22.30
2019-04-16T15:35:54.174Z,22.20
2019-04-16T15:38:33.254Z,22.20
2019-04-16T15:41:17.488Z,22.20
2019-04-16T15:44:01.954Z,22.20
2019-04-16T15:46:48.144Z,22.10
2019-04-16T15:49:27.577Z,22.10
2019-04-16T15:52:14.652Z,22.10
2019-04-16T15:55:01.087Z,22.10
2019-04-16T15:57:39.986Z,22.00
2019-04-16T16:00:10.227Z,22.00
2019-04-16T16:02:52.206Z,22.00
2019-04-16T16:05:38.589Z,21.90
2019-04-16T16:08:26.937Z,21.80
2019-04-16T16:11:05.883Z,21.70
2019-04-16T16:13:34.517Z,21.70
2019-04-16T16:16:03.061Z,21.60
2019-04-16T16:18:31.723Z,21.60
2019-04-16T16:21:00.351Z,21.60
2019-04-16T16:23:34.155Z,21.50
2019-04-16T16:26:02.021Z,21.40
2019-04-16T16:28:30.514Z,21.40
2019-04-16T16:30:59.180Z,21.40
2019-04-16T16:33:27.800Z,21.30
2019-04-16T16:35:58.856Z,21.20
2019-04-16T16:38:27.460Z,21.20
2019-04-16T16:40:56.227Z,21.10
2019-04-16T16:43:24.838Z,21.00
2019-04-16T16:45:57.793Z,20.80
2019-04-16T16:48:26.785Z,20.80
2019-04-16T16:50:55.632Z,20.60
2019-04-16T16:53:25.836Z,20.60
2019-04-16T16:55:56.597Z,20.60
2019-04-16T16:58:26.721Z,20.40
2019-04-16T17:01:00.393Z,20.30
2019-04-16T17:03:44.690Z,20.20
2019-04-16T17:06:14.845Z,20.20
2019-04-16T17:08:43.350Z,20.10
2019-04-16T17:11:16.473Z,20.00
2019-04-16T17:13:43.394Z,20.00
2019-04-16T17:16:14.405Z,19.90
2019-04-16T17:18:45.324Z,19.70
2019-04-16T17:21:12.454Z,19.70
2019-04-16T17:23:41.032Z,19.70
2019-04-16T17:26:09.647Z,19.70
2019-04-16T17:28:40.303Z,19.70
2019-04-16T17:31:08.425Z,19.70
2019-04-16T17:33:37.106Z,19.60
2019-04-16T17:36:05.671Z,19.50
2019-04-16T17:38:36.945Z,19.30
2019-04-16T17:41:06.957Z,19.30
2019-04-16T17:44:00.411Z,19.30
2019-04-16T17:46:26.626Z,19.30
2019-04-16T17:48:59.724Z,19.20
2019-04-16T17:51:36.127Z,19.10
2019-04-16T17:54:20.927Z,19.10
2019-04-16T17:57:00.219Z,19.10
2019-04-16T17:59:30.415Z,19.00
2019-04-16T18:02:17.074Z,19.00
2019-04-16T18:04:59.152Z,18.90
2019-04-16T18:07:35.190Z,18.90
2019-04-16T18:10:16.091Z,19.00
2019-04-16T18:12:58.435Z,18.90
2019-04-16T18:15:28.553Z,18.70
2019-04-16T18:18:01.379Z,18.70
2019-04-16T18:20:57.383Z,18.70
2019-04-16T18:23:34.963Z,18.70
2019-04-16T18:26:21.208Z,18.70
2019-04-16T18:29:03.488Z,18.60
2019-04-16T18:31:33.731Z,18.50
2019-04-16T18:34:12.717Z,18.50
2019-04-16T18:36:42.872Z,18.40
2019-04-16T18:39:27.648Z,18.40
2019-04-16T18:42:10.735Z,18.40
2019-04-16T18:44:40.943Z,18.40
2019-04-16T18:47:27.584Z,18.30
2019-04-16T18:49:57.884Z,18.30
2019-04-16T18:52:26.399Z,18.40
2019-04-16T18:54:55.047Z,18.30
2019-04-16T18:57:23.635Z,18.30
2019-04-16T18:59:52.500Z,18.20
2019-04-16T19:02:22.860Z,18.10
2019-04-16T19:04:51.384Z,18.10
2019-04-16T19:07:19.991Z,18.00
2019-04-16T19:09:48.657Z,17.90
2019-04-16T19:12:17.297Z,17.80
2019-04-16T19:15:46.469Z,17.80
2019-04-16T19:18:19.582Z,17.90
2019-04-16T19:20:45.097Z,17.80
2019-04-16T19:23:13.575Z,17.80
2019-04-16T19:25:42.046Z,17.80
2019-04-16T19:28:10.611Z,17.80
2019-04-16T19:30:39.153Z,17.90
2019-04-16T19:33:07.754Z,17.90
2019-04-16T19:35:37.730Z,17.90
2019-04-16T19:38:07.518Z,17.90
2019-04-16T19:40:36.091Z,18.00
2019-04-16T19:43:04.520Z,18.00
2019-04-16T19:45:32.947Z,18.10
2019-04-16T19:48:02.197Z,18.10
2019-04-16T19:50:36.159Z,18.10
2019-04-16T19:53:01.229Z,18.20
2019-04-16T19:55:29.726Z,18.20
2019-04-16T19:57:58.172Z,18.20
2019-04-16T20:00:26.703Z,18.30
2019-04-16T20:02:55.271Z,18.20
2019-04-16T20:05:23.783Z,18.10
2019-04-16T20:07:52.220Z,18.00
2019-04-16T20:10:20.754Z,18.00
2019-04-16T20:12:49.226Z,17.90
2019-04-16T20:15:17.770Z,17.90
2019-04-16T20:17:46.380Z,17.90
2019-04-16T20:20:14.893Z,17.80
2019-04-16T20:22:43.318Z,17.90
2019-04-16T20:25:11.921Z,17.90
2019-04-16T20:27:41.560Z,17.80
2019-04-16T20:30:11.620Z,17.90
2019-04-16T20:32:42.335Z,18.00
2019-04-16T20:35:10.174Z,18.00
2019-04-16T20:37:38.757Z,18.00
2019-04-16T20:40:07.230Z,18.00
2019-04-16T20:42:35.703Z,18.00
2019-04-16T20:45:05.714Z,17.90
2019-04-16T20:47:38.551Z,17.90
2019-04-16T20:50:06.803Z,17.90
2019-04-16T20:52:35.259Z,17.80
2019-04-16T20:55:03.959Z,18.00
2019-04-16T20:57:32.337Z,17.90
2019-04-16T21:00:00.763Z,18.00
2019-04-16T21:02:30.980Z,17.90
2019-04-16T21:05:03.042Z,17.80
2019-04-16T21:07:29.654Z,17.90
2019-04-16T21:09:59.853Z,17.70
2019-04-16T21:12:28.409Z,17.80
2019-04-16T21:14:56.908Z,17.80
2019-04-16T21:17:25.445Z,17.80
2019-04-16T21:19:53.865Z,17.70
2019-04-16T21:22:24.962Z,17.70
2019-04-16T21:24:52.518Z,17.60
2019-04-16T21:27:21.026Z,17.80
2019-04-16T21:29:49.444Z,17.80
2019-04-16T21:32:22.505Z,17.80
2019-04-16T21:35:00.584Z,17.90
2019-04-16T21:37:45.161Z,17.80
2019-04-16T21:40:13.708Z,17.70
2019-04-16T21:42:42.195Z,17.60
2019-04-16T21:45:10.667Z,17.70
2019-04-16T21:47:39.991Z,17.60
2019-04-16T21:50:08.563Z,17.60
2019-04-16T21:52:37.156Z,17.60
2019-04-16T21:55:06.851Z,17.80
2019-04-16T21:57:35.348Z,17.70
2019-04-16T22:00:07.592Z,17.70
2019-04-16T22:02:38.640Z,17.70
2019-04-16T22:05:08.100Z,17.70
2019-04-16T22:07:36.660Z,17.60
2019-04-16T22:10:05.361Z,17.60
2019-04-16T22:12:33.769Z,17.60
2019-04-16T22:15:02.312Z,17.60
2019-04-16T22:17:35.474Z,17.70
2019-04-16T22:20:03.902Z,17.80
2019-04-16T22:22:31.018Z,17.90
2019-04-16T22:24:59.746Z,17.80
2019-04-16T22:27:28.307Z,17.60
2019-04-16T22:29:56.780Z,17.60
2019-04-16T22:32:27.085Z,17.50
2019-04-16T22:34:55.345Z,17.50
2019-04-16T22:37:23.802Z,17.60
2019-04-16T22:40:00.141Z,17.50
2019-04-16T22:42:33.138Z,17.50
2019-04-16T22:45:05.891Z,17.40
2019-04-16T22:47:36.040Z,17.40
2019-04-16T22:50:16.028Z,17.30
2019-04-16T22:52:36.438Z,17.40
2019-04-16T22:55:05.796Z,17.30
2019-04-16T22:57:34.396Z,17.30
2019-04-16T23:00:03.086Z,17.20
2019-04-16T23:02:31.521Z,17.10
2019-04-16T23:05:00.193Z,17.10
2019-04-16T23:07:28.885Z,17.20
2019-04-16T23:09:57.737Z,17.10
2019-04-16T23:12:28.132Z,17.00
2019-04-16T23:14:56.702Z,17.00
2019-04-16T23:17:26.870Z,16.90
2019-04-16T23:19:55.587Z,16.90
2019-04-16T23:22:23.983Z,16.80
2019-04-16T23:24:55.265Z,17.00
2019-04-16T23:27:22.602Z,16.90
2019-04-16T23:29:51.015Z,16.80
2019-04-16T23:32:19.504Z,16.70
2019-04-16T23:34:48.124Z,16.70
2019-04-16T23:37:16.697Z,16.60
2019-04-16T23:39:45.192Z,16.60
2019-04-16T23:42:18.811Z,16.70
2019-04-16T23:44:50.949Z,16.60
2019-04-16T23:47:32.554Z,16.70
2019-04-16T23:50:11.385Z,16.70
2019-04-16T23:52:42.394Z,16.80
2019-04-16T23:55:17.463Z,16.70
2019-04-16T23:58:02.974Z,16.90
